createdAt,value
2019-04-28T00:01:14.909Z,8.31
2019-04-28T00:03:43.797Z,8.29
2019-04-28T00:06:13.106Z,8.37
2019-04-28T00:08:42.891Z,8.24
2019-04-28T00:11:12.400Z,8.33
2019-04-28T00:13:41.912Z,8.49
2019-04-28T00:16:11.939Z,8.40
2019-04-28T00:18:41.686Z,8.39
2019-04-28T00:21:20.771Z,8.42
2019-04-28T00:24:07.516Z,8.24
2019-04-28T00:26:37.918Z,8.34
2019-04-28T00:29:07.407Z,8.37
2019-04-28T00:31:36.211Z,8.44
2019-04-28T00:34:05.512Z,8.31
2019-04-28T00:36:35.529Z,8.29
2019-04-28T00:39:05.649Z,8.17
2019-04-28T00:41:34.538Z,8.21
2019-04-28T00:44:03.437Z,8.33
2019-04-28T00:46:36.935Z,8.24
2019-04-28T00:49:05.929Z,8.11
2019-04-28T00:51:34.819Z,7.66
2019-04-28T00:54:03.720Z,7.76
2019-04-28T00:56:32.605Z,8.15
2019-04-28T00:59:01.766Z,7.77
2019-04-28T01:01:48.721Z,7.64
2019-04-28T01:04:17.707Z,7.89
2019-04-28T01:06:48.134Z,7.97
2019-04-28T01:09:17.332Z,7.93
2019-04-28T01:11:46.224Z,8.02
2019-04-28T01:14:15.114Z,8.06
2019-04-28T01:16:45.541Z,7.96
2019-04-28T01:19:20.247Z,7.69
2019-04-28T01:22:10.269Z,7.65
2019-04-28T01:24:41.001Z,7.85
2019-04-28T01:27:15.822Z,7.98
2019-04-28T01:29:44.718Z,8.14
2019-04-28T01:32:17.901Z,8.08
2019-04-28T01:34:46.792Z,8.12
2019-04-28T01:37:15.683Z,8.27
2019-04-28T01:39:44.575Z,8.10
2019-04-28T01:42:13.466Z,8.10
2019-04-28T01:44:42.357Z,8.21
2019-04-28T01:47:11.759Z,8.10
2019-04-28T01:49:40.731Z,8.33
2019-04-28T01:52:10.486Z,8.28
2019-04-28T01:54:40.307Z,8.44
2019-04-28T01:57:10.200Z,8.20
2019-04-28T01:59:40.306Z,8.15
2019-04-28T02:02:10.636Z,8.07
2019-04-28T02:04:40.245Z,8.28
2019-04-28T02:07:11.069Z,8.32
2019-04-28T02:09:40.074Z,8.28
2019-04-28T02:12:10.625Z,8.14
2019-04-28T02:14:40.370Z,6.89
2019-04-28T02:17:10.742Z,6.98
2019-04-28T02:19:40.976Z,6.33
2019-04-28T02:22:12.824Z,6.01
2019-04-28T02:24:41.716Z,5.88
2019-04-28T02:27:12.040Z,5.96
2019-04-28T02:29:41.730Z,5.57
2019-04-28T02:32:12.998Z,5.54
2019-04-28T02:34:42.014Z,5.74
2019-04-28T02:37:12.831Z,5.87
2019-04-28T02:39:41.719Z,5.72
2019-04-28T02:42:11.636Z,5.68
2019-04-28T02:44:40.813Z,5.84
2019-04-28T02:47:11.299Z,5.94
2019-04-28T02:49:50.698Z,5.90
2019-04-28T02:52:24.114Z,6.26
2019-04-28T02:54:52.986Z,6.61
2019-04-28T02:57:21.890Z,6.89
2019-04-28T02:59:51.154Z,6.65
2019-04-28T03:02:20.984Z,6.69
2019-04-28T03:04:50.850Z,6.42
2019-04-28T03:07:21.672Z,6.63
2019-04-28T03:09:52.013Z,6.79
2019-04-28T03:12:21.738Z,6.68
2019-04-28T03:14:50.897Z,6.61
2019-04-28T03:17:20.737Z,6.79
2019-04-28T03:19:51.639Z,6.68
2019-04-28T03:22:20.825Z,6.60
2019-04-28T03:24:51.305Z,6.64
2019-04-28T03:27:33.766Z,6.54
2019-04-28T03:30:13.233Z,6.73
2019-04-28T03:32:52.231Z,6.67
2019-04-28T03:35:13.562Z,6.92
2019-04-28T03:37:42.536Z,6.94
2019-04-28T03:40:12.039Z,6.94
2019-04-28T03:42:41.264Z,6.91
2019-04-28T03:45:12.230Z,6.82
2019-04-28T03:47:41.087Z,6.81
2019-04-28T03:50:10.715Z,6.71
2019-04-28T03:52:41.463Z,6.84
2019-04-28T03:55:12.866Z,6.93
2019-04-28T03:57:44.217Z,6.80
2019-04-28T04:00:14.035Z,7.09
2019-04-28T04:02:42.924Z,6.95
2019-04-28T04:05:12.465Z,7.04
2019-04-28T04:07:43.283Z,6.96
2019-04-28T04:10:20.683Z,6.91
2019-04-28T04:12:51.206Z,6.86
2019-04-28T04:15:41.330Z,6.90
2019-04-28T04:18:16.004Z,6.99
2019-04-28T04:20:44.890Z,6.39
2019-04-28T04:23:13.786Z,6.61
2019-04-28T04:25:42.677Z,6.69
2019-04-28T04:28:12.695Z,6.42
2019-04-28T04:30:41.587Z,6.36
2019-04-28T04:33:11.393Z,6.30
2019-04-28T04:35:41.095Z,6.46
2019-04-28T04:38:11.845Z,6.22
2019-04-28T04:40:41.472Z,6.24
2019-04-28T04:43:11.506Z,6.62
2019-04-28T04:45:40.768Z,6.79
2019-04-28T04:48:11.599Z,6.79
2019-04-28T04:50:41.301Z,6.69
2019-04-28T04:53:11.257Z,6.61
2019-04-28T04:55:41.009Z,6.53
2019-04-28T04:58:10.708Z,6.65
2019-04-28T05:00:56.638Z,6.69
2019-04-28T05:03:33.310Z,6.49
2019-04-28T05:06:03.737Z,6.47
2019-04-28T05:08:32.631Z,6.75
2019-04-28T05:11:01.520Z,6.67
2019-04-28T05:13:30.411Z,6.71
2019-04-28T05:15:59.859Z,6.64
2019-04-28T05:18:29.738Z,6.75
2019-04-28T05:20:59.485Z,6.79
2019-04-28T05:23:36.216Z,6.92
2019-04-28T05:26:08.028Z,6.96
2019-04-28T05:28:36.942Z,6.90
2019-04-28T05:31:06.166Z,7.06
2019-04-28T05:33:35.058Z,7.08
2019-04-28T05:36:03.957Z,7.09
2019-04-28T05:38:32.847Z,6.91
2019-04-28T05:41:02.806Z,6.93
2019-04-28T05:43:31.955Z,7.02
2019-04-28T05:46:00.845Z,7.16
2019-04-28T05:48:47.555Z,7.16
2019-04-28T05:51:23.509Z,7.23
2019-04-28T05:53:59.670Z,7.09
2019-04-28T05:56:39.732Z,7.37
2019-04-28T05:59:21.399Z,7.41
2019-04-28T06:01:58.065Z,7.45
2019-04-28T06:04:30.277Z,7.57
2019-04-28T06:07:00.275Z,7.53
2019-04-28T06:09:30.702Z,7.53
2019-04-28T06:12:00.122Z,7.46
2019-04-28T06:14:30.044Z,7.41
2019-04-28T06:17:00.483Z,7.49
2019-04-28T06:19:30.211Z,7.41
2019-04-28T06:21:59.260Z,7.36
2019-04-28T06:24:28.145Z,7.29
2019-04-28T06:26:57.036Z,7.45
2019-04-28T06:29:25.927Z,7.50
2019-04-28T06:31:54.818Z,7.49
2019-04-28T06:34:23.709Z,7.54
2019-04-28T06:36:52.601Z,7.54
2019-04-28T06:39:21.492Z,7.69
2019-04-28T06:41:50.389Z,7.64
2019-04-28T06:44:19.377Z,7.57
2019-04-28T06:46:48.370Z,7.47
2019-04-28T06:49:17.262Z,7.68
2019-04-28T06:51:46.256Z,7.89
2019-04-28T06:54:15.150Z,7.95
2019-04-28T06:56:44.043Z,8.20
2019-04-28T06:59:12.930Z,8.21
2019-04-28T07:01:41.963Z,8.52
2019-04-28T07:04:11.123Z,8.40
2019-04-28T07:06:41.041Z,8.58
2019-04-28T07:09:10.360Z,8.74
2019-04-28T07:11:39.439Z,8.73
2019-04-28T07:14:08.738Z,8.85
2019-04-28T07:16:37.836Z,8.95
2019-04-28T07:19:07.851Z,8.98
2019-04-28T07:21:41.119Z,8.80
2019-04-28T07:24:10.251Z,8.85
2019-04-28T07:26:39.252Z,8.90
2019-04-28T07:29:08.739Z,8.87
2019-04-28T07:31:37.632Z,8.86
2019-04-28T07:34:06.830Z,8.80
2019-04-28T07:36:35.824Z,8.40
2019-04-28T07:39:07.015Z,8.75
2019-04-28T07:41:35.858Z,8.78
2019-04-28T07:44:05.080Z,8.69
2019-04-28T07:46:33.948Z,8.27
2019-04-28T07:49:02.942Z,8.78
2019-04-28T07:51:39.311Z,8.98
2019-04-28T07:54:10.003Z,9.00
2019-04-28T07:56:38.933Z,9.40
2019-04-28T07:59:07.910Z,9.67
2019-04-28T08:01:36.898Z,9.78
2019-04-28T08:04:05.705Z,9.59
2019-04-28T08:06:34.699Z,9.73
2019-04-28T08:09:05.381Z,9.99
2019-04-28T08:11:34.224Z,9.52
2019-04-28T08:14:03.216Z,9.55
2019-04-28T08:16:32.107Z,9.40
2019-04-28T08:19:01.002Z,9.46
2019-04-28T08:21:29.894Z,8.77
2019-04-28T08:23:58.677Z,8.63
2019-04-28T08:26:27.591Z,8.55
2019-04-28T08:28:56.460Z,7.57
2019-04-28T08:31:26.889Z,7.15
2019-04-28T08:34:02.835Z,6.45
2019-04-28T08:36:32.147Z,6.20
2019-04-28T08:39:01.038Z,6.44
2019-04-28T08:41:29.989Z,6.37
2019-04-28T08:43:58.920Z,5.95
2019-04-28T08:46:27.812Z,6.04
2019-04-28T08:48:56.703Z,6.91
2019-04-28T08:51:25.595Z,6.59
2019-04-28T08:53:54.485Z,6.76
2019-04-28T08:56:23.480Z,7.59
2019-04-28T08:58:52.370Z,8.03
2019-04-28T09:01:21.367Z,8.20
2019-04-28T09:03:50.204Z,8.23
2019-04-28T09:06:19.147Z,8.45
2019-04-28T09:08:48.038Z,8.49
2019-04-28T09:11:17.284Z,8.61
2019-04-28T09:13:46.127Z,9.00
2019-04-28T09:16:15.020Z,9.20
2019-04-28T09:18:44.013Z,9.30
2019-04-28T09:21:12.905Z,9.10
2019-04-28T09:23:41.794Z,8.83
2019-04-28T09:26:10.992Z,8.82
2019-04-28T09:28:39.883Z,8.82
2019-04-28T09:31:10.054Z,9.12
2019-04-28T09:33:38.896Z,9.26
2019-04-28T09:36:08.608Z,9.54
2019-04-28T09:38:37.611Z,9.07
2019-04-28T09:41:07.798Z,9.12
2019-04-28T09:43:53.304Z,9.38
2019-04-28T09:46:23.729Z,9.73
2019-04-28T09:48:52.620Z,9.26
2019-04-28T09:51:21.510Z,9.13
2019-04-28T09:53:50.407Z,9.23
2019-04-28T09:56:19.396Z,9.37
2019-04-28T09:58:48.287Z,9.58
2019-04-28T10:01:17.179Z,9.71
2019-04-28T10:03:46.071Z,9.72
2019-04-28T10:06:14.964Z,10.10
2019-04-28T10:08:43.958Z,9.74
2019-04-28T10:11:12.849Z,10.23
2019-04-28T10:13:43.169Z,10.21
2019-04-28T10:16:12.061Z,9.98
2019-04-28T10:18:40.954Z,10.32
2019-04-28T10:21:10.869Z,10.31
2019-04-28T10:23:39.764Z,10.48
2019-04-28T10:26:09.777Z,10.11
2019-04-28T10:28:38.585Z,10.19
2019-04-28T10:31:08.792Z,10.26
2019-04-28T10:33:39.274Z,10.27
2019-04-28T10:36:08.416Z,10.29
2019-04-28T10:38:38.943Z,9.81
2019-04-28T10:41:10.968Z,9.90
2019-04-28T10:43:39.799Z,9.61
2019-04-28T10:46:09.714Z,9.34
2019-04-28T10:48:38.699Z,9.60
2019-04-28T10:51:08.524Z,9.72
2019-04-28T10:53:37.411Z,9.36
2019-04-28T10:56:06.302Z,9.37
2019-04-28T10:58:35.191Z,9.84
2019-04-28T11:01:04.188Z,9.24
2019-04-28T11:03:33.085Z,9.52
2019-04-28T11:06:01.973Z,9.81
2019-04-28T11:08:38.597Z,9.61
2019-04-28T11:11:10.349Z,9.41
2019-04-28T11:13:39.907Z,9.40
2019-04-28T11:16:11.149Z,9.58
2019-04-28T11:18:40.145Z,9.60
2019-04-28T11:21:09.962Z,9.64
2019-04-28T11:23:38.853Z,9.34
2019-04-28T11:26:08.675Z,8.89
2019-04-28T11:28:37.939Z,8.42
2019-04-28T11:31:07.980Z,8.70
2019-04-28T11:33:44.266Z,8.52
2019-04-28T11:36:14.673Z,7.72
2019-04-28T11:38:43.563Z,7.40
2019-04-28T11:41:12.971Z,6.49
2019-04-28T11:43:41.857Z,5.95
2019-04-28T11:46:12.797Z,5.64
2019-04-28T11:48:41.688Z,5.71
2019-04-28T11:51:11.705Z,6.17
2019-04-28T11:53:40.597Z,5.39
2019-04-28T11:56:10.000Z,5.85
2019-04-28T11:58:38.891Z,6.35
2019-04-28T12:01:09.932Z,6.62
2019-04-28T12:03:38.823Z,6.71
2019-04-28T12:06:08.638Z,6.85
2019-04-28T12:08:37.528Z,7.33
2019-04-28T12:11:13.891Z,7.62
2019-04-28T12:13:44.322Z,7.57
2019-04-28T12:16:30.109Z,7.36
2019-04-28T12:19:04.139Z,7.33
2019-04-28T12:21:33.318Z,7.63
2019-04-28T12:24:02.331Z,7.46
2019-04-28T12:26:31.203Z,7.83
2019-04-28T12:29:00.914Z,7.73
2019-04-28T12:31:30.010Z,8.23
2019-04-28T12:33:58.899Z,8.76
2019-04-28T12:36:27.910Z,8.85
2019-04-28T12:38:56.785Z,9.29
2019-04-28T12:41:25.574Z,8.72
2019-04-28T12:43:54.466Z,8.92
2019-04-28T12:46:23.357Z,9.02
2019-04-28T12:48:53.887Z,8.95
2019-04-28T12:51:24.313Z,9.26
2019-04-28T12:53:54.741Z,9.47
2019-04-28T12:56:23.635Z,9.83
2019-04-28T12:58:54.059Z,9.40
2019-04-28T13:01:30.521Z,8.92
2019-04-28T13:04:00.955Z,9.35
2019-04-28T13:06:29.848Z,9.61
2019-04-28T13:09:00.173Z,9.59
2019-04-28T13:11:29.069Z,9.88
2019-04-28T13:13:57.953Z,9.94
2019-04-28T13:16:26.846Z,9.88
2019-04-28T13:18:55.738Z,9.61
2019-04-28T13:21:24.628Z,9.73
2019-04-28T13:23:53.538Z,9.83
2019-04-28T13:26:22.420Z,9.74
2019-04-28T13:28:51.305Z,9.68
2019-04-28T13:31:20.201Z,9.24
2019-04-28T13:33:56.363Z,9.52
2019-04-28T13:36:22.891Z,9.39
2019-04-28T13:38:52.810Z,9.30
2019-04-28T13:41:21.805Z,9.21
2019-04-28T13:43:50.922Z,8.95
2019-04-28T13:46:19.788Z,8.96
2019-04-28T13:48:50.223Z,8.91
2019-04-28T13:51:20.641Z,8.79
2019-04-28T13:53:51.068Z,8.60
2019-04-28T13:56:21.844Z,8.35
2019-04-28T13:58:52.207Z,8.00
2019-04-28T14:01:28.698Z,7.67
2019-04-28T14:04:08.216Z,8.18
2019-04-28T14:06:38.790Z,8.32
2019-04-28T14:09:10.966Z,8.06
2019-04-28T14:11:39.827Z,7.99
2019-04-28T14:14:10.588Z,8.37
2019-04-28T14:16:39.401Z,8.37
2019-04-28T14:19:08.466Z,8.60
2019-04-28T14:21:37.338Z,8.82
2019-04-28T14:24:06.281Z,8.95
2019-04-28T14:26:35.295Z,8.96
2019-04-28T14:29:04.362Z,8.85
2019-04-28T14:31:33.213Z,8.71
2019-04-28T14:34:02.162Z,9.07
2019-04-28T14:36:41.454Z,9.35
2019-04-28T14:39:01.803Z,9.10
2019-04-28T14:41:30.723Z,9.05
2019-04-28T14:44:00.368Z,9.33
2019-04-28T14:46:29.324Z,9.68
2019-04-28T14:48:58.214Z,9.82
2019-04-28T14:51:28.622Z,9.71
2019-04-28T14:53:57.540Z,9.62
2019-04-28T14:56:29.085Z,9.32
2019-04-28T14:58:57.976Z,9.60
2019-04-28T15:01:37.209Z,9.90
2019-04-28T15:04:09.483Z,10.25
2019-04-28T15:06:55.821Z,9.71
2019-04-28T15:09:26.923Z,9.89
2019-04-28T15:11:57.354Z,9.77
2019-04-28T15:14:26.395Z,10.02
2019-04-28T15:16:55.338Z,9.84
2019-04-28T15:19:24.410Z,9.55
2019-04-28T15:21:54.691Z,9.64
2019-04-28T15:24:23.651Z,9.66
2019-04-28T15:26:52.543Z,9.61
2019-04-28T15:29:21.433Z,9.74
2019-04-28T15:31:50.425Z,10.33
2019-04-28T15:34:19.318Z,10.05
2019-04-28T15:36:48.208Z,9.76
2019-04-28T15:39:17.598Z,9.64
2019-04-28T15:41:46.623Z,9.38
2019-04-28T15:44:15.599Z,9.56
2019-04-28T15:46:44.601Z,9.58
2019-04-28T15:49:13.791Z,9.53
2019-04-28T15:51:42.712Z,9.25
2019-04-28T15:54:12.495Z,9.04
2019-04-28T15:56:43.229Z,9.40
2019-04-28T15:59:12.054Z,9.12
2019-04-28T16:01:41.105Z,9.35
2019-04-28T16:04:10.624Z,9.46
2019-04-28T16:06:39.512Z,9.06
2019-04-28T16:09:10.861Z,9.26
2019-04-28T16:11:39.959Z,8.93
2019-04-28T16:14:10.795Z,9.02
2019-04-28T16:16:40.121Z,9.12
2019-04-28T16:19:09.604Z,9.12
2019-04-28T16:21:38.594Z,8.96
2019-04-28T16:24:07.776Z,8.91
2019-04-28T16:26:36.816Z,9.10
2019-04-28T16:29:05.810Z,9.26
2019-04-28T16:31:34.837Z,8.94
2019-04-28T16:34:03.867Z,9.04
2019-04-28T16:36:32.879Z,8.97
2019-04-28T16:39:01.872Z,9.06
2019-04-28T16:41:31.975Z,8.95
2019-04-28T16:44:03.018Z,9.06
2019-04-28T16:46:32.052Z,8.97
2019-04-28T16:49:01.003Z,8.66
2019-04-28T16:51:30.208Z,8.68
2019-04-28T16:53:59.093Z,8.60
2019-04-28T16:56:29.692Z,8.73
2019-04-28T16:59:16.042Z,8.79
2019-04-28T17:01:58.796Z,8.87
2019-04-28T17:04:27.839Z,8.78
2019-04-28T17:06:56.728Z,8.18
2019-04-28T17:09:25.755Z,7.90
2019-04-28T17:11:54.615Z,7.36
2019-04-28T17:14:23.734Z,6.90
2019-04-28T17:16:53.730Z,6.83
2019-04-28T17:19:22.619Z,6.52
2019-04-28T17:21:51.613Z,6.60
2019-04-28T17:24:20.599Z,6.84
2019-04-28T17:26:49.499Z,7.03
2019-04-28T17:29:18.389Z,7.29
2019-04-28T17:31:47.280Z,7.62
2019-04-28T17:34:16.168Z,7.68
2019-04-28T17:36:46.493Z,7.18
2019-04-28T17:39:16.581Z,6.99
2019-04-28T17:41:45.610Z,7.46
2019-04-28T17:44:17.011Z,7.68
2019-04-28T17:46:45.139Z,7.68
2019-04-28T17:49:15.664Z,7.80
2019-04-28T17:51:44.556Z,7.85
2019-04-28T17:54:13.442Z,7.77
2019-04-28T17:56:42.334Z,7.69
2019-04-28T17:59:13.682Z,7.78
2019-04-28T18:01:46.744Z,7.75
2019-04-28T18:04:29.487Z,7.89
2019-04-28T18:06:59.913Z,7.67
2019-04-28T18:09:29.318Z,7.62
2019-04-28T18:11:58.211Z,7.61
2019-04-28T18:14:27.099Z,7.73
2019-04-28T18:17:13.753Z,7.82
2019-04-28T18:19:42.699Z,7.85
2019-04-28T18:22:12.512Z,7.59
2019-04-28T18:24:41.405Z,7.61
2019-04-28T18:27:10.910Z,7.60
2019-04-28T18:29:39.800Z,7.46
2019-04-28T18:32:25.793Z,7.57
2019-04-28T18:35:01.859Z,7.51
2019-04-28T18:37:48.663Z,7.48
2019-04-28T18:40:19.090Z,7.56
2019-04-28T18:42:50.562Z,7.54
2019-04-28T18:45:19.639Z,7.40
2019-04-28T18:47:48.528Z,7.53
2019-04-28T18:50:17.536Z,7.70
2019-04-28T18:52:46.524Z,7.66
2019-04-28T18:55:15.526Z,7.38
2019-04-28T18:57:44.508Z,7.50
2019-04-28T19:00:14.842Z,7.54
2019-04-28T19:02:45.261Z,7.60
2019-04-28T19:05:14.970Z,7.55
2019-04-28T19:07:48.466Z,7.43
2019-04-28T19:10:19.233Z,7.55
2019-04-28T19:12:58.720Z,7.58
2019-04-28T19:15:45.354Z,7.51
2019-04-28T19:18:21.811Z,7.31
2019-04-28T19:20:50.712Z,7.14
2019-04-28T19:23:19.601Z,7.11
2019-04-28T19:25:48.492Z,7.26
2019-04-28T19:28:17.385Z,7.31
2019-04-28T19:30:46.274Z,7.25
2019-04-28T19:33:15.164Z,7.27
2019-04-28T19:35:44.058Z,7.31
2019-04-28T19:38:12.947Z,7.43
2019-04-28T19:40:41.839Z,7.38
2019-04-28T19:43:11.464Z,7.43
2019-04-28T19:45:41.872Z,7.41
2019-04-28T19:48:11.787Z,7.43
2019-04-28T19:50:40.679Z,7.49
2019-04-28T19:53:09.674Z,7.41
2019-04-28T19:55:42.863Z,7.37
2019-04-28T19:58:30.402Z,7.12
2019-04-28T20:01:03.793Z,7.23
2019-04-28T20:03:32.833Z,7.37
2019-04-28T20:06:01.776Z,7.22
2019-04-28T20:08:30.667Z,7.32
2019-04-28T20:10:59.580Z,7.11
2019-04-28T20:13:31.301Z,7.05
2019-04-28T20:15:59.080Z,7.13
2019-04-28T20:18:29.629Z,7.15
2019-04-28T20:20:58.585Z,7.15
2019-04-28T20:23:27.393Z,7.35
2019-04-28T20:25:56.286Z,7.11
2019-04-28T20:28:25.177Z,7.15
2019-04-28T20:30:54.067Z,7.17
2019-04-28T20:33:22.959Z,7.03
2019-04-28T20:36:03.335Z,7.05
2019-04-28T20:38:33.438Z,6.86
2019-04-28T20:41:09.800Z,7.00
2019-04-28T20:43:38.586Z,7.00
2019-04-28T20:46:07.703Z,7.10
2019-04-28T20:48:36.583Z,7.03
2019-04-28T20:51:05.474Z,7.18
2019-04-28T20:53:34.370Z,7.17
2019-04-28T20:56:03.463Z,7.24
2019-04-28T20:58:32.353Z,7.21
2019-04-28T21:01:01.243Z,7.13
2019-04-28T21:03:30.238Z,7.09
2019-04-28T21:05:59.129Z,7.09
2019-04-28T21:08:28.017Z,7.03
2019-04-28T21:10:56.910Z,7.06
2019-04-28T21:13:25.799Z,7.05
2019-04-28T21:15:54.603Z,7.06
2019-04-28T21:18:23.481Z,7.08
2019-04-28T21:20:52.376Z,7.05
2019-04-28T21:23:22.797Z,7.07
2019-04-28T21:25:51.689Z,7.04
2019-04-28T21:28:20.580Z,7.07
2019-04-28T21:30:49.471Z,7.07
2019-04-28T21:33:18.362Z,7.11
2019-04-28T21:35:47.257Z,7.08
2019-04-28T21:38:16.147Z,7.13
2019-04-28T21:40:45.035Z,7.02
2019-04-28T21:43:27.753Z,7.12
2019-04-28T21:45:58.178Z,7.19
2019-04-28T21:48:37.718Z,6.99
2019-04-28T21:51:07.638Z,6.99
2019-04-28T21:53:36.536Z,6.99
2019-04-28T21:56:05.622Z,6.84
2019-04-28T21:58:34.617Z,6.82
2019-04-28T22:01:04.326Z,6.77
2019-04-28T22:03:33.318Z,6.90
2019-04-28T22:06:02.227Z,6.78
2019-04-28T22:08:31.104Z,6.66
2019-04-28T22:10:59.995Z,6.54
2019-04-28T22:13:28.884Z,6.64
2019-04-28T22:15:57.776Z,6.62
2019-04-28T22:18:26.671Z,6.55
2019-04-28T22:20:55.579Z,6.62
2019-04-28T22:23:42.474Z,6.77
2019-04-28T22:26:13.103Z,6.14
2019-04-28T22:28:41.998Z,6.33
2019-04-28T22:31:11.707Z,6.16
2019-04-28T22:33:40.597Z,6.30
2019-04-28T22:36:09.999Z,6.30
2019-04-28T22:38:38.889Z,6.20
2019-04-28T22:41:08.729Z,6.14
2019-04-28T22:43:39.231Z,6.13
2019-04-28T22:46:09.146Z,6.14
2019-04-28T22:48:38.039Z,6.03
2019-04-28T22:51:07.748Z,6.03
2019-04-28T22:53:38.176Z,6.14
2019-04-28T22:56:11.547Z,6.19
2019-04-28T22:58:45.175Z,6.22
2019-04-28T23:01:15.603Z,6.27
2019-04-28T23:03:46.223Z,6.34
2019-04-28T23:06:15.228Z,6.23
2019-04-28T23:08:44.116Z,6.35
2019-04-28T23:11:13.021Z,6.24
2019-04-28T23:13:41.903Z,6.23
2019-04-28T23:16:12.023Z,6.23
2019-04-28T23:18:41.013Z,6.43
2019-04-28T23:21:11.970Z,6.25
2019-04-28T23:23:40.844Z,5.99
2019-04-28T23:26:09.940Z,5.66
2019-04-28T23:28:38.830Z,5.87
2019-04-28T23:31:08.439Z,6.17
2019-04-28T23:33:37.228Z,6.35
2019-04-28T23:36:07.661Z,6.37
2019-04-28T23:38:36.545Z,6.34
2019-04-28T23:41:12.835Z,6.48
2019-04-28T23:43:43.136Z,6.80
2019-04-28T23:46:12.436Z,6.64
2019-04-28T23:48:41.327Z,6.62
2019-04-28T23:51:27.523Z,6.59
2019-04-28T23:54:03.666Z,6.67
2019-04-28T23:56:32.576Z,6.53
2019-04-28T23:59:01.467Z,6.53
